createdAt,value
2022-10-10T00:00:02.258Z,13.70
2022-10-10T00:10:01.969Z,11.90
2022-10-10T00:20:01.567Z,12.60
2022-10-10T00:30:01.003Z,11.20
2022-10-10T00:40:01.908Z,10.10
2022-10-10T00:50:01.302Z,11.40
2022-10-10T01:00:01.009Z,9.60
2022-10-10T01:10:00.145Z,7.80
2022-10-10T01:20:01.708Z,9.90
2022-10-10T01:30:01.233Z,12.20
2022-10-10T01:40:01.440Z,7.60
2022-10-10T01:50:00.155Z,7.40
2022-10-10T02:00:01.020Z,9.20
2022-10-10T02:20:01.057Z,10.70
2022-10-10T02:30:01.292Z,10.20
2022-10-10T02:40:00.141Z,9.30
2022-10-10T03:00:00.985Z,18.10
2022-10-10T03:10:01.120Z,6.20
2022-10-10T03:20:01.052Z,8.00
2022-10-10T03:30:00.168Z,8.70
2022-10-10T03:40:00.134Z,11.10
2022-10-10T03:50:01.572Z,8.10
2022-10-10T04:00:01.166Z,9.30
2022-10-10T04:10:00.772Z,13.60
2022-10-10T04:20:01.355Z,17.40
2022-10-10T04:30:01.077Z,13.30
2022-10-10T04:40:01.022Z,7.80
2022-10-10T04:50:01.553Z,9.80
2022-10-10T05:00:01.000Z,8.80
2022-10-10T05:10:00.168Z,8.50
2022-10-10T05:20:01.382Z,10.10
2022-10-10T05:30:01.081Z,11.80
2022-10-10T05:40:00.956Z,10.70
2022-10-10T05:50:01.310Z,10.10
2022-10-10T06:00:00.121Z,12.40
2022-10-10T06:10:01.037Z,16.10
2022-10-10T06:20:00.987Z,16.80
2022-10-10T06:40:01.195Z,11.70
2022-10-10T06:50:00.164Z,12.20
2022-10-10T07:00:01.090Z,10.50
2022-10-10T07:10:00.140Z,8.90
2022-10-10T07:20:01.021Z,12.90
2022-10-10T07:30:01.241Z,7.70
2022-10-10T07:40:01.226Z,10.10
2022-10-10T07:50:01.071Z,13.20
2022-10-10T08:00:00.140Z,12.30
2022-10-10T08:10:00.163Z,11.70
2022-10-10T08:20:00.136Z,8.60
2022-10-10T08:30:00.209Z,6.10
2022-10-10T08:40:00.121Z,9.40
2022-10-10T08:50:01.049Z,8.70
2022-10-10T09:00:01.041Z,9.10
2022-10-10T09:10:00.160Z,11.50
2022-10-10T09:20:00.110Z,6.20
2022-10-10T09:30:00.862Z,9.50
2022-10-10T09:40:01.881Z,9.50
2022-10-10T09:50:00.223Z,12.60
2022-10-10T10:00:02.340Z,17.70
2022-10-10T10:10:01.174Z,13.90
2022-10-10T10:20:01.490Z,21.60
2022-10-10T10:30:03.161Z,14.90
2022-10-10T10:40:00.954Z,22.70
2022-10-10T10:50:00.953Z,71.80
2022-10-10T11:00:21.567Z,101.10
2022-10-10T11:10:00.144Z,195.80
2022-10-10T11:20:01.061Z,513.30
2022-10-10T11:40:01.234Z,136.70
2022-10-10T11:50:01.300Z,129.20
2022-10-10T12:00:00.142Z,126.80
2022-10-10T12:10:01.009Z,103.20
2022-10-10T12:20:01.859Z,113.10
2022-10-10T12:30:01.336Z,153.60
2022-10-10T12:40:00.987Z,140.70
2022-10-10T12:50:00.987Z,145.10
2022-10-10T13:00:02.360Z,153.20
2022-10-10T13:10:01.103Z,139.50
2022-10-10T13:20:01.089Z,120.30
2022-10-10T13:30:02.197Z,110.50
2022-10-10T13:40:01.292Z,149.00
2022-10-10T13:50:01.104Z,152.00
2022-10-10T14:00:01.251Z,113.40
2022-10-10T14:10:01.016Z,138.00
2022-10-10T14:20:01.291Z,145.40
2022-10-10T14:30:01.049Z,146.40
2022-10-10T14:40:01.010Z,134.10
2022-10-10T14:50:01.401Z,150.90
2022-10-10T15:00:01.036Z,145.40
2022-10-10T15:10:31.958Z,124.70
2022-10-10T15:20:00.149Z,139.60
2022-10-10T15:30:01.348Z,148.40
2022-10-10T15:40:01.102Z,101.00
2022-10-10T15:50:01.102Z,127.20
2022-10-10T16:00:01.043Z,118.10
2022-10-10T16:10:01.012Z,77.50
2022-10-10T16:20:01.899Z,58.40
2022-10-10T16:30:01.584Z,50.90
2022-10-10T16:40:01.944Z,54.30
2022-10-10T16:50:01.360Z,50.90
2022-10-10T17:00:01.238Z,37.70
2022-10-10T17:10:01.289Z,26.70
2022-10-10T17:20:01.312Z,35.80
2022-10-10T17:30:01.292Z,41.70
2022-10-10T17:40:01.051Z,26.60
2022-10-10T17:50:01.066Z,30.20
2022-10-10T18:00:01.279Z,28.90
2022-10-10T18:10:03.747Z,25.80
2022-10-10T18:20:01.323Z,21.20
2022-10-10T18:30:00.176Z,21.50
2022-10-10T18:40:02.250Z,23.50
2022-10-10T18:50:01.176Z,20.80
2022-10-10T19:00:01.008Z,23.00
2022-10-10T19:10:01.277Z,39.70
2022-10-10T19:20:00.989Z,16.10
2022-10-10T19:30:01.504Z,16.60
2022-10-10T19:40:00.985Z,18.80
2022-10-10T19:50:01.071Z,18.70
2022-10-10T20:00:02.539Z,19.30
2022-10-10T20:10:01.027Z,26.40
2022-10-10T20:20:01.228Z,21.30
2022-10-10T20:30:01.072Z,22.60
2022-10-10T20:40:01.031Z,17.90
2022-10-10T20:50:02.172Z,15.50
2022-10-10T21:00:01.159Z,21.20
2022-10-10T21:10:01.256Z,18.70
2022-10-10T21:20:01.256Z,16.30
2022-10-10T21:30:01.284Z,12.00
2022-10-10T21:40:00.973Z,15.00
2022-10-10T21:50:01.531Z,12.20
2022-10-10T22:00:01.948Z,9.50
2022-10-10T22:10:01.917Z,12.90
2022-10-10T22:20:00.965Z,12.40
2022-10-10T22:30:01.331Z,11.90
2022-10-10T22:40:00.984Z,15.80
2022-10-10T22:50:01.110Z,8.40
2022-10-10T23:00:01.016Z,9.00
2022-10-10T23:10:01.231Z,9.20
2022-10-10T23:20:00.132Z,10.50
2022-10-10T23:30:00.140Z,10.10
2022-10-10T23:40:01.268Z,10.40
2022-10-10T23:50:00.990Z,8.40
